createdAt,value
2018-08-30T00:00:43.913Z,8.40
2018-08-30T00:03:13.501Z,8.13
2018-08-30T00:05:43.250Z,8.18
2018-08-30T00:08:13.082Z,8.43
2018-08-30T00:10:42.679Z,8.00
2018-08-30T00:13:11.814Z,8.25
2018-08-30T00:15:41.074Z,8.15
2018-08-30T00:18:10.258Z,8.18
2018-08-30T00:20:39.377Z,8.63
2018-08-30T00:23:08.559Z,8.23
2018-08-30T00:25:37.638Z,7.67
2018-08-30T00:28:07.546Z,7.53
2018-08-30T00:30:36.865Z,7.90
2018-08-30T00:33:06.328Z,7.80
2018-08-30T00:35:35.579Z,8.05
2018-08-30T00:38:04.921Z,8.50
2018-08-30T00:40:34.192Z,8.05
2018-08-30T00:43:03.471Z,8.28
2018-08-30T00:45:32.665Z,8.28
2018-08-30T00:48:03.019Z,8.78
2018-08-30T00:50:32.077Z,8.93
2018-08-30T00:53:01.097Z,7.90
2018-08-30T00:55:30.298Z,8.28
2018-08-30T00:57:59.487Z,8.15
2018-08-30T01:00:28.583Z,8.35
2018-08-30T01:02:57.829Z,8.50
2018-08-30T01:05:27.117Z,8.35
2018-08-30T01:07:56.159Z,7.97
2018-08-30T01:10:25.178Z,7.42
2018-08-30T01:12:55.390Z,9.30
2018-08-30T01:15:26.322Z,7.90
2018-08-30T01:17:55.991Z,8.45
2018-08-30T01:20:25.337Z,8.95
2018-08-30T01:22:54.888Z,9.90
2018-08-30T01:25:24.013Z,9.40
2018-08-30T01:27:53.363Z,9.28
2018-08-30T01:30:22.394Z,8.95
2018-08-30T01:32:51.715Z,8.58
2018-08-30T01:35:20.921Z,9.15
2018-08-30T01:37:50.022Z,8.28
2018-08-30T01:40:19.068Z,9.00
2018-08-30T01:42:48.433Z,8.30
2018-08-30T01:45:17.589Z,8.50
2018-08-30T01:47:46.815Z,8.80
2018-08-30T01:50:15.890Z,8.23
2018-08-30T01:52:45.104Z,8.65
2018-08-30T01:55:14.342Z,8.58
2018-08-30T01:57:43.617Z,9.00
2018-08-30T02:00:12.785Z,8.68
2018-08-30T02:02:41.998Z,9.03
2018-08-30T02:05:11.342Z,9.55
2018-08-30T02:07:40.505Z,8.10
2018-08-30T02:10:09.787Z,8.40
2018-08-30T02:12:38.913Z,9.40
2018-08-30T02:15:08.128Z,9.13
2018-08-30T02:17:37.331Z,9.15
2018-08-30T02:20:06.981Z,9.58
2018-08-30T02:22:36.090Z,8.08
2018-08-30T02:25:05.509Z,8.75
2018-08-30T02:27:34.607Z,8.68
2018-08-30T02:30:03.935Z,9.05
2018-08-30T02:32:33.101Z,8.40
2018-08-30T02:35:02.185Z,9.08
2018-08-30T02:37:31.494Z,9.55
2018-08-30T02:40:00.611Z,9.30
2018-08-30T02:42:29.734Z,8.35
2018-08-30T02:44:59.071Z,8.68
2018-08-30T02:47:28.429Z,9.08
2018-08-30T02:49:57.777Z,8.48
2018-08-30T02:52:27.010Z,9.33
2018-08-30T02:54:56.310Z,9.30
2018-08-30T02:57:25.513Z,8.98
2018-08-30T02:59:54.673Z,8.63
2018-08-30T03:02:23.810Z,7.70
2018-08-30T03:04:53.118Z,7.97
2018-08-30T03:07:22.294Z,7.92
2018-08-30T03:09:51.476Z,7.70
2018-08-30T03:12:21.120Z,8.33
2018-08-30T03:15:01.121Z,7.70
2018-08-30T03:17:30.452Z,7.28
2018-08-30T03:19:59.713Z,6.80
2018-08-30T03:22:28.863Z,6.95
2018-08-30T03:24:58.087Z,7.50
2018-08-30T03:27:27.446Z,6.72
2018-08-30T03:29:56.700Z,6.78
2018-08-30T03:32:26.171Z,7.15
2018-08-30T03:34:56.253Z,6.22
2018-08-30T03:37:25.457Z,6.30
2018-08-30T03:39:54.886Z,6.25
2018-08-30T03:42:23.962Z,6.55
2018-08-30T03:44:53.186Z,8.33
2018-08-30T03:47:22.225Z,6.00
2018-08-30T03:49:51.515Z,5.67
2018-08-30T03:52:21.801Z,4.67
2018-08-30T03:54:51.054Z,5.17
2018-08-30T03:57:20.394Z,4.53
2018-08-30T03:59:49.603Z,4.72
2018-08-30T04:02:18.978Z,4.22
2018-08-30T04:04:48.156Z,4.00
2018-08-30T04:07:17.264Z,4.40
2018-08-30T04:09:46.664Z,3.45
2018-08-30T04:12:15.769Z,3.58
2018-08-30T04:14:44.817Z,4.10
2018-08-30T04:17:13.981Z,4.00
2018-08-30T04:19:43.273Z,3.95
2018-08-30T04:22:12.564Z,4.17
2018-08-30T04:24:41.724Z,3.70
2018-08-30T04:27:10.950Z,3.92
2018-08-30T04:29:40.109Z,3.42
2018-08-30T04:32:09.135Z,3.42
2018-08-30T04:34:38.424Z,3.60
2018-08-30T04:37:07.698Z,3.90
2018-08-30T04:39:37.058Z,3.20
2018-08-30T04:42:06.415Z,3.55
2018-08-30T04:44:35.510Z,4.05
2018-08-30T04:47:04.833Z,3.62
2018-08-30T04:49:33.893Z,3.83
2018-08-30T04:52:03.165Z,3.33
2018-08-30T04:54:32.437Z,3.65
2018-08-30T04:57:01.644Z,3.10
2018-08-30T04:59:30.899Z,3.17
2018-08-30T05:02:00.038Z,3.05
2018-08-30T05:04:29.590Z,2.90
2018-08-30T05:06:58.722Z,2.62
2018-08-30T05:09:27.998Z,3.15
2018-08-30T05:11:57.050Z,2.72
2018-08-30T05:14:26.152Z,2.58
2018-08-30T05:16:55.498Z,2.90
2018-08-30T05:19:24.705Z,2.40
2018-08-30T05:21:53.883Z,2.40
2018-08-30T05:24:23.142Z,2.85
2018-08-30T05:26:52.274Z,2.87
2018-08-30T05:29:21.886Z,2.55
2018-08-30T05:31:51.112Z,2.80
2018-08-30T05:34:20.334Z,2.42
2018-08-30T05:36:49.609Z,2.92
2018-08-30T05:39:18.953Z,2.55
2018-08-30T05:41:48.226Z,2.80
2018-08-30T05:44:17.402Z,2.60
2018-08-30T05:46:46.923Z,3.35
2018-08-30T05:49:16.256Z,2.90
2018-08-30T05:51:45.607Z,2.75
2018-08-30T05:54:14.856Z,2.87
2018-08-30T05:56:43.926Z,2.77
2018-08-30T05:59:13.142Z,2.52
2018-08-30T06:01:42.355Z,2.70
2018-08-30T06:04:11.434Z,2.67
2018-08-30T06:06:40.528Z,2.65
2018-08-30T06:09:09.789Z,2.67
2018-08-30T06:11:39.101Z,2.60
2018-08-30T06:14:08.282Z,2.77
2018-08-30T06:16:37.451Z,2.98
2018-08-30T06:19:06.886Z,2.87
2018-08-30T06:21:36.115Z,3.15
2018-08-30T06:24:05.398Z,2.62
2018-08-30T06:26:34.658Z,2.83
2018-08-30T06:29:03.909Z,3.17
2018-08-30T06:31:32.967Z,2.70
2018-08-30T06:34:02.375Z,3.00
2018-08-30T06:36:31.690Z,2.80
2018-08-30T06:39:00.908Z,3.10
2018-08-30T06:41:30.157Z,2.85
2018-08-30T06:43:59.810Z,2.77
2018-08-30T06:46:29.080Z,2.92
2018-08-30T06:48:58.312Z,2.95
2018-08-30T06:51:27.509Z,2.70
2018-08-30T06:53:56.686Z,2.67
2018-08-30T06:56:25.852Z,3.17
2018-08-30T06:58:55.005Z,2.70
2018-08-30T07:01:24.243Z,2.35
2018-08-30T07:03:53.453Z,2.65
2018-08-30T07:06:22.760Z,2.83
2018-08-30T07:08:51.951Z,2.85
2018-08-30T07:11:29.852Z,2.87
2018-08-30T07:14:08.384Z,2.60
2018-08-30T07:16:37.950Z,2.70
2018-08-30T07:19:07.079Z,2.65
2018-08-30T07:21:36.298Z,2.58
2018-08-30T07:24:05.437Z,2.52
2018-08-30T07:26:34.614Z,2.75
2018-08-30T07:29:03.851Z,2.65
2018-08-30T07:31:33.103Z,2.40
2018-08-30T07:34:02.386Z,2.67
2018-08-30T07:36:31.610Z,2.50
2018-08-30T07:39:00.785Z,2.52
2018-08-30T07:41:30.162Z,2.70
2018-08-30T07:43:59.431Z,2.92
2018-08-30T07:46:28.474Z,2.77
2018-08-30T07:48:57.657Z,2.75
2018-08-30T07:51:26.957Z,3.00
2018-08-30T07:53:56.154Z,2.67
2018-08-30T07:56:25.274Z,2.55
2018-08-30T07:58:54.342Z,2.60
2018-08-30T08:01:23.618Z,2.40
2018-08-30T08:03:52.851Z,2.17
2018-08-30T08:06:21.978Z,2.33
2018-08-30T08:08:51.129Z,2.15
2018-08-30T08:11:20.348Z,2.80
2018-08-30T08:13:49.587Z,2.80
2018-08-30T08:16:18.738Z,2.42
2018-08-30T08:18:47.885Z,2.40
2018-08-30T08:21:17.013Z,2.15
2018-08-30T08:23:46.361Z,2.20
2018-08-30T08:26:15.457Z,2.50
2018-08-30T08:28:44.736Z,2.40
2018-08-30T08:31:14.098Z,2.20
2018-08-30T08:33:43.150Z,2.45
2018-08-30T08:36:12.347Z,2.47
2018-08-30T08:38:41.529Z,2.33
2018-08-30T08:41:10.838Z,2.10
2018-08-30T08:43:40.114Z,2.55
2018-08-30T08:46:09.232Z,2.35
2018-08-30T08:48:38.508Z,2.47
2018-08-30T08:51:08.122Z,2.15
2018-08-30T08:53:37.367Z,2.33
2018-08-30T08:56:06.667Z,2.40
2018-08-30T08:58:36.081Z,2.12
2018-08-30T09:01:05.237Z,2.55
2018-08-30T09:03:34.518Z,2.40
2018-08-30T09:06:03.622Z,2.10
2018-08-30T09:08:32.934Z,2.17
2018-08-30T09:11:02.170Z,2.40
2018-08-30T09:13:31.566Z,2.12
2018-08-30T09:16:00.825Z,2.42
2018-08-30T09:18:30.164Z,2.15
2018-08-30T09:20:59.605Z,1.67
2018-08-30T09:23:29.085Z,1.67
2018-08-30T09:25:58.345Z,1.90
2018-08-30T09:28:27.392Z,2.20
2018-08-30T09:30:56.549Z,2.12
2018-08-30T09:33:25.637Z,2.10
2018-08-30T09:35:54.952Z,2.33
2018-08-30T09:38:24.153Z,2.12
2018-08-30T09:40:53.396Z,2.60
2018-08-30T09:43:22.635Z,2.17
2018-08-30T09:45:51.764Z,2.15
2018-08-30T09:48:21.014Z,2.02
2018-08-30T09:50:50.070Z,1.75
2018-08-30T09:53:19.225Z,1.75
2018-08-30T09:55:48.547Z,1.80
2018-08-30T09:58:18.138Z,1.92
2018-08-30T10:00:52.528Z,2.05
2018-08-30T10:03:21.746Z,2.10
2018-08-30T10:05:50.998Z,2.08
2018-08-30T10:08:20.361Z,1.85
2018-08-30T10:10:49.633Z,2.05
2018-08-30T10:13:19.010Z,2.02
2018-08-30T10:15:48.168Z,1.90
2018-08-30T10:18:17.470Z,1.92
2018-08-30T10:20:46.659Z,2.05
2018-08-30T10:23:15.841Z,2.10
2018-08-30T10:25:44.953Z,1.82
2018-08-30T10:28:14.536Z,2.02
2018-08-30T10:30:43.817Z,1.87
2018-08-30T10:33:12.982Z,2.20
2018-08-30T10:35:42.372Z,1.80
2018-08-30T10:38:11.635Z,1.90
2018-08-30T10:40:40.961Z,1.92
2018-08-30T10:43:10.267Z,2.05
2018-08-30T10:45:39.482Z,2.00
2018-08-30T10:48:08.762Z,1.90
2018-08-30T10:50:38.038Z,2.20
2018-08-30T10:53:07.219Z,1.90
2018-08-30T10:55:36.371Z,1.70
2018-08-30T10:58:05.532Z,2.08
2018-08-30T11:00:35.601Z,1.80
2018-08-30T11:03:04.911Z,2.50
2018-08-30T11:05:34.125Z,2.00
2018-08-30T11:08:03.344Z,1.90
2018-08-30T11:10:32.622Z,2.12
2018-08-30T11:13:01.885Z,2.10
2018-08-30T11:15:30.820Z,2.02
2018-08-30T11:18:00.126Z,2.02
2018-08-30T11:20:29.500Z,2.05
2018-08-30T11:22:58.705Z,2.35
2018-08-30T11:25:27.891Z,2.30
2018-08-30T11:27:57.167Z,2.27
2018-08-30T11:30:26.402Z,2.55
2018-08-30T11:32:55.725Z,2.33
2018-08-30T11:35:25.026Z,2.42
2018-08-30T11:37:54.393Z,2.33
2018-08-30T11:40:23.717Z,2.10
2018-08-30T11:42:52.851Z,2.00
2018-08-30T11:45:22.140Z,1.95
2018-08-30T11:47:51.418Z,2.52
2018-08-30T11:50:20.684Z,2.05
2018-08-30T11:52:49.873Z,1.90
2018-08-30T11:55:19.170Z,2.00
2018-08-30T11:57:48.418Z,2.25
2018-08-30T12:00:17.689Z,2.10
2018-08-30T12:02:47.201Z,2.10
2018-08-30T12:05:16.448Z,2.62
2018-08-30T12:07:45.991Z,2.10
2018-08-30T12:10:15.239Z,2.50
2018-08-30T12:12:44.445Z,2.00
2018-08-30T12:15:13.613Z,1.95
2018-08-30T12:17:42.658Z,2.30
2018-08-30T12:20:11.853Z,1.92
2018-08-30T12:22:41.101Z,1.80
2018-08-30T12:25:10.253Z,2.27
2018-08-30T12:27:39.606Z,2.20
2018-08-30T12:30:08.898Z,2.20
2018-08-30T12:32:38.035Z,1.90
2018-08-30T12:35:07.288Z,1.80
2018-08-30T12:37:36.365Z,1.90
2018-08-30T12:40:05.647Z,2.20
2018-08-30T12:42:35.137Z,1.72
2018-08-30T12:45:04.364Z,1.60
2018-08-30T12:47:33.810Z,2.20
2018-08-30T12:50:02.907Z,2.00
2018-08-30T12:52:32.028Z,2.02
2018-08-30T12:55:01.199Z,2.20
2018-08-30T12:57:30.954Z,1.80
2018-08-30T13:00:01.425Z,1.98
2018-08-30T13:02:30.615Z,2.10
2018-08-30T13:04:59.697Z,2.33
2018-08-30T13:07:29.018Z,2.47
2018-08-30T13:09:58.344Z,2.15
2018-08-30T13:12:27.504Z,2.27
2018-08-30T13:14:56.704Z,2.17
2018-08-30T13:17:25.839Z,2.20
2018-08-30T13:19:55.263Z,2.12
2018-08-30T13:22:24.509Z,1.72
2018-08-30T13:24:53.668Z,2.17
2018-08-30T13:27:22.753Z,1.77
2018-08-30T13:29:52.003Z,1.60
2018-08-30T13:32:21.341Z,1.52
2018-08-30T13:34:50.591Z,1.77
2018-08-30T13:37:19.369Z,1.90
2018-08-30T13:39:48.713Z,1.92
2018-08-30T13:42:18.201Z,2.05
2018-08-30T13:44:47.350Z,2.20
2018-08-30T13:47:16.684Z,2.45
2018-08-30T13:49:45.568Z,2.35
2018-08-30T13:52:14.910Z,2.35
2018-08-30T13:54:44.195Z,2.90
2018-08-30T13:57:13.282Z,2.90
2018-08-30T13:59:42.624Z,3.05
2018-08-30T14:02:11.576Z,2.60
2018-08-30T14:04:40.975Z,2.72
2018-08-30T14:07:10.043Z,2.67
2018-08-30T14:09:39.310Z,3.70
2018-08-30T14:12:08.739Z,3.02
2018-08-30T14:14:37.921Z,3.10
2018-08-30T14:17:06.888Z,3.22
2018-08-30T14:19:36.152Z,2.65
2018-08-30T14:22:05.496Z,3.22
2018-08-30T14:24:34.554Z,3.55
2018-08-30T14:27:04.059Z,3.52
2018-08-30T14:29:33.250Z,3.40
2018-08-30T14:32:02.665Z,3.30
2018-08-30T14:34:31.939Z,3.50
2018-08-30T14:37:01.263Z,3.12
2018-08-30T14:39:30.384Z,3.67
2018-08-30T14:41:59.365Z,3.40
2018-08-30T14:44:28.710Z,3.70
2018-08-30T14:46:57.794Z,3.58
2018-08-30T14:49:26.949Z,3.72
2018-08-30T14:51:56.123Z,3.17
2018-08-30T14:54:25.364Z,3.45
2018-08-30T14:56:54.662Z,3.83
2018-08-30T14:59:23.914Z,3.40
2018-08-30T15:01:52.898Z,3.52
2018-08-30T15:04:22.266Z,4.05
2018-08-30T15:06:51.601Z,4.10
2018-08-30T15:09:20.849Z,4.33
2018-08-30T15:11:50.064Z,4.75
2018-08-30T15:14:19.285Z,4.53
2018-08-30T15:16:48.566Z,4.80
2018-08-30T15:19:17.846Z,4.45
2018-08-30T15:21:47.075Z,4.92
2018-08-30T15:24:16.286Z,4.67
2018-08-30T15:26:45.876Z,4.40
2018-08-30T15:29:15.187Z,4.50
2018-08-30T15:31:44.427Z,4.20
2018-08-30T15:34:13.818Z,4.62
2018-08-30T15:36:43.009Z,3.98
2018-08-30T15:39:12.542Z,4.45
2018-08-30T15:41:41.895Z,4.50
2018-08-30T15:44:11.678Z,4.87
2018-08-30T15:46:40.770Z,4.35
2018-08-30T15:49:09.945Z,4.20
2018-08-30T15:51:39.097Z,4.90
2018-08-30T15:54:08.389Z,5.03
2018-08-30T15:56:37.622Z,4.50
2018-08-30T15:59:07.083Z,4.85
2018-08-30T16:01:36.157Z,4.97
2018-08-30T16:04:05.373Z,4.60
2018-08-30T16:06:34.597Z,4.87
2018-08-30T16:09:04.050Z,4.33
2018-08-30T16:11:33.264Z,4.80
2018-08-30T16:14:02.439Z,4.60
2018-08-30T16:16:31.665Z,4.83
2018-08-30T16:19:00.927Z,4.95
2018-08-30T16:21:31.209Z,5.10
2018-08-30T16:24:00.497Z,5.12
2018-08-30T16:26:29.863Z,5.47
2018-08-30T16:28:59.155Z,6.03
2018-08-30T16:31:28.329Z,5.80
2018-08-30T16:33:57.573Z,6.15
2018-08-30T16:36:27.002Z,5.62
2018-08-30T16:38:56.193Z,5.87
2018-08-30T16:41:25.359Z,6.37
2018-08-30T16:43:54.582Z,6.55
2018-08-30T16:46:23.876Z,7.53
2018-08-30T16:48:53.315Z,6.60
2018-08-30T16:51:22.469Z,9.03
2018-08-30T16:53:51.646Z,7.70
2018-08-30T16:56:21.053Z,9.00
2018-08-30T16:58:50.322Z,9.55
2018-08-30T17:01:19.481Z,10.57
2018-08-30T17:03:48.666Z,8.47
2018-08-30T17:06:17.892Z,9.80
2018-08-30T17:08:47.215Z,10.20
2018-08-30T17:11:16.572Z,9.20
2018-08-30T17:13:45.773Z,9.33
2018-08-30T17:16:14.916Z,9.33
2018-08-30T17:18:46.335Z,9.60
2018-08-30T17:21:15.617Z,10.23
2018-08-30T17:23:44.843Z,11.17
2018-08-30T17:26:14.076Z,10.27
2018-08-30T17:28:43.332Z,10.13
2018-08-30T17:31:12.624Z,10.07
2018-08-30T17:33:41.834Z,10.10
2018-08-30T17:36:11.039Z,9.37
2018-08-30T17:38:40.341Z,9.80
2018-08-30T17:41:09.567Z,9.73
2018-08-30T17:43:38.762Z,9.50
2018-08-30T17:46:08.056Z,9.27
2018-08-30T17:48:37.335Z,9.87
2018-08-30T17:51:06.726Z,9.47
2018-08-30T17:53:36.451Z,10.20
2018-08-30T17:56:05.724Z,10.50
2018-08-30T17:58:35.000Z,10.37
2018-08-30T18:01:04.368Z,11.13
2018-08-30T18:03:33.490Z,10.30
2018-08-30T18:06:02.838Z,12.20
2018-08-30T18:08:32.045Z,11.43
2018-08-30T18:11:01.330Z,11.97
2018-08-30T18:13:30.626Z,10.70
2018-08-30T18:15:59.779Z,10.50
2018-08-30T18:18:29.093Z,11.07
2018-08-30T18:20:58.441Z,11.13
2018-08-30T18:23:27.824Z,9.77
2018-08-30T18:25:57.121Z,10.30
2018-08-30T18:28:26.466Z,9.27
2018-08-30T18:30:55.689Z,10.60
2018-08-30T18:33:25.014Z,9.90
2018-08-30T18:35:54.321Z,8.90
2018-08-30T18:38:23.650Z,12.40
2018-08-30T18:40:52.885Z,9.50
2018-08-30T18:43:22.002Z,9.90
2018-08-30T18:45:51.597Z,9.90
2018-08-30T18:48:20.694Z,10.00
2018-08-30T18:50:50.003Z,9.30
2018-08-30T18:53:19.215Z,9.23
2018-08-30T18:55:48.559Z,10.47
2018-08-30T18:58:17.695Z,9.03
2018-08-30T19:00:46.920Z,8.80
2018-08-30T19:03:16.122Z,8.80
2018-08-30T19:05:46.322Z,8.47
2018-08-30T19:08:16.408Z,8.07
2018-08-30T19:10:45.665Z,9.20
2018-08-30T19:13:15.096Z,8.87
2018-08-30T19:15:49.342Z,8.10
2018-08-30T19:18:23.566Z,8.87
2018-08-30T19:20:52.698Z,8.50
2018-08-30T19:23:22.765Z,8.10
2018-08-30T19:25:51.913Z,8.60
2018-08-30T19:28:21.081Z,8.50
2018-08-30T19:30:50.318Z,8.43
2018-08-30T19:33:19.571Z,8.50
2018-08-30T19:35:53.738Z,7.87
2018-08-30T19:38:22.936Z,8.50
2018-08-30T19:40:57.217Z,8.13
2018-08-30T19:43:26.866Z,8.93
2018-08-30T19:45:56.181Z,8.10
2018-08-30T19:48:25.549Z,8.30
2018-08-30T19:50:54.806Z,8.27
2018-08-30T19:53:24.114Z,7.87
2018-08-30T19:55:53.333Z,7.53
2018-08-30T19:58:22.568Z,7.83
2018-08-30T20:00:51.939Z,7.77
2018-08-30T20:03:21.230Z,7.90
2018-08-30T20:05:50.613Z,7.30
2018-08-30T20:08:19.801Z,8.13
2018-08-30T20:10:49.194Z,7.97
2018-08-30T20:13:18.722Z,7.57
2018-08-30T20:15:47.984Z,7.37
2018-08-30T20:18:17.135Z,6.70
2018-08-30T20:20:46.314Z,8.10
2018-08-30T20:23:15.651Z,8.05
2018-08-30T20:25:44.879Z,8.23
2018-08-30T20:28:14.106Z,8.70
2018-08-30T20:30:43.401Z,8.53
2018-08-30T20:33:12.621Z,7.57
2018-08-30T20:35:41.889Z,8.03
2018-08-30T20:38:11.417Z,8.07
2018-08-30T20:40:40.626Z,8.17
2018-08-30T20:43:09.872Z,9.13
2018-08-30T20:45:39.083Z,7.63
2018-08-30T20:48:08.507Z,8.03
2018-08-30T20:50:37.627Z,8.77
2018-08-30T20:53:06.938Z,7.43
2018-08-30T20:55:36.057Z,9.53
2018-08-30T20:58:05.366Z,7.62
2018-08-30T21:00:34.598Z,8.57
2018-08-30T21:03:03.994Z,8.60
2018-08-30T21:05:33.313Z,8.30
2018-08-30T21:08:02.601Z,8.50
2018-08-30T21:10:31.969Z,8.17
2018-08-30T21:13:01.259Z,7.90
2018-08-30T21:15:30.538Z,8.93
2018-08-30T21:17:59.683Z,7.90
2018-08-30T21:20:28.833Z,8.53
2018-08-30T21:22:58.098Z,8.73
2018-08-30T21:25:27.253Z,8.60
2018-08-30T21:27:56.479Z,9.43
2018-08-30T21:30:25.797Z,8.47
2018-08-30T21:32:54.953Z,8.73
2018-08-30T21:35:24.241Z,8.75
2018-08-30T21:37:53.653Z,9.27
2018-08-30T21:40:22.890Z,8.47
2018-08-30T21:42:52.189Z,9.70
2018-08-30T21:45:21.335Z,8.83
2018-08-30T21:47:50.537Z,8.13
2018-08-30T21:50:20.376Z,9.57
2018-08-30T21:52:49.615Z,7.65
2018-08-30T21:55:18.930Z,9.70
2018-08-30T21:57:48.049Z,9.53
2018-08-30T22:00:17.398Z,9.40
2018-08-30T22:02:46.545Z,8.87
2018-08-30T22:05:15.802Z,8.97
2018-08-30T22:07:44.966Z,8.13
2018-08-30T22:10:14.253Z,8.40
2018-08-30T22:12:43.453Z,9.00
2018-08-30T22:15:12.593Z,8.43
2018-08-30T22:17:41.847Z,9.37
2018-08-30T22:20:11.108Z,8.77
2018-08-30T22:22:40.171Z,8.80
2018-08-30T22:25:09.473Z,8.30
2018-08-30T22:27:38.569Z,8.53
2018-08-30T22:30:09.936Z,8.00
2018-08-30T22:32:39.482Z,8.80
2018-08-30T22:35:08.758Z,8.70
2018-08-30T22:37:38.001Z,8.43
2018-08-30T22:40:07.675Z,8.70
2018-08-30T22:42:36.942Z,8.50
2018-08-30T22:45:06.580Z,8.40
2018-08-30T22:47:35.858Z,7.60
2018-08-30T22:50:05.423Z,7.53
2018-08-30T22:52:34.817Z,7.90
2018-08-30T22:55:04.173Z,8.03
2018-08-30T22:57:33.498Z,7.40
2018-08-30T23:00:02.554Z,7.87
2018-08-30T23:02:31.922Z,7.78
2018-08-30T23:05:01.158Z,7.97
2018-08-30T23:07:30.458Z,7.40
2018-08-30T23:09:59.830Z,7.75
2018-08-30T23:12:29.177Z,7.80
2018-08-30T23:14:58.365Z,7.13
2018-08-30T23:17:27.549Z,7.75
2018-08-30T23:19:57.092Z,8.27
2018-08-30T23:22:26.459Z,6.90
2018-08-30T23:24:55.728Z,7.40
2018-08-30T23:27:25.022Z,7.33
2018-08-30T23:29:54.320Z,7.33
2018-08-30T23:32:23.541Z,6.97
2018-08-30T23:34:52.957Z,6.90
2018-08-30T23:37:22.353Z,7.13
2018-08-30T23:39:52.249Z,6.53
2018-08-30T23:42:21.518Z,6.10
2018-08-30T23:44:50.742Z,6.77
2018-08-30T23:47:19.981Z,6.40
2018-08-30T23:49:49.417Z,6.60
2018-08-30T23:52:18.683Z,6.17
2018-08-30T23:54:47.935Z,6.57
2018-08-30T23:57:17.161Z,7.30
2018-08-30T23:59:57.163Z,6.50
